Time;durP1;ratioP1;P1;durP2;ratioP2;P2;SDS_P1;SDS_P2;PMS_P1;PMS_P2;Temp;Humidity;BMP_temperature;BMP_pressure;BME280_temperature;BME280_humidity;BME280_pressure;Samples;Min_cycle;Max_cycle;Signal;HPM_P1;HPM_P2
2023/05/23 00:01:06;;;;;;;0.40;0.40;;;15.10;1.00;;;;;;5010928;28;20207;-61
2023/05/23 00:03:33;;;;;;;0.30;0.30;;;15.10;1.00;;;;;;5017524;28;20235;-60
2023/05/23 00:06:01;;;;;;;0.73;0.73;;;15.10;1.00;;;;;;5026775;28;20224;-62
2023/05/23 00:08:28;;;;;;;0.60;0.60;;;15.10;1.00;;;;;;5036103;28;20219;-60
2023/05/23 00:10:55;;;;;;;0.30;0.30;;;15.00;1.00;;;;;;5032642;28;20645;-58
2023/05/23 00:13:22;;;;;;;0.40;0.40;;;15.00;1.00;;;;;;5035463;28;20215;-60
2023/05/23 00:15:49;;;;;;;0.30;0.30;;;15.00;1.00;;;;;;5010053;28;20283;-59
2023/05/23 00:18:17;;;;;;;0.40;0.40;;;14.90;1.00;;;;;;5020553;28;20250;-59
2023/05/23 00:20:44;;;;;;;0.40;0.40;;;15.00;1.00;;;;;;5028346;28;20199;-59
2023/05/23 00:23:17;;;;;;;0.40;0.40;;;15.10;1.00;;;;;;5031123;28;20677;-59
2023/05/23 00:25:51;;;;;;;0.30;0.30;;;15.30;1.00;;;;;;5018117;28;21939;-60
2023/05/23 00:28:19;;;;;;;0.37;0.37;;;15.30;1.00;;;;;;4999059;28;20743;-59
2023/05/23 00:30:47;;;;;;;0.30;0.30;;;15.50;1.00;;;;;;5033896;28;20196;-58
2023/05/23 00:33:16;;;;;;;0.30;0.30;;;15.60;1.00;;;;;;5026371;28;20212;-60
2023/05/23 00:35:43;;;;;;;0.27;0.27;;;15.60;1.00;;;;;;5030927;28;20196;-60
2023/05/23 00:38:10;;;;;;;0.30;0.30;;;15.70;1.00;;;;;;5031378;28;20677;-60
2023/05/23 00:40:37;;;;;;;0.30;0.30;;;15.70;1.00;;;;;;5022498;28;20189;-59
2023/05/23 00:43:05;;;;;;;0.30;0.30;;;15.70;1.00;;;;;;5018457;28;20203;-60
2023/05/23 00:45:32;;;;;;;0.20;0.20;;;15.80;1.00;;;;;;5036808;28;20197;-59
2023/05/23 00:48:00;;;;;;;0.20;0.20;;;15.90;1.00;;;;;;5015960;28;20257;-60
2023/05/23 00:50:28;;;;;;;0.20;0.20;;;16.00;1.00;;;;;;5030029;28;20275;-59
2023/05/23 00:52:59;;;;;;;0.30;0.30;;;16.00;1.00;;;;;;5033711;28;20227;-59
2023/05/23 00:55:27;;;;;;;0.40;0.40;;;16.00;1.00;;;;;;5025554;28;20635;-62
2023/05/23 00:57:56;;;;;;;0.20;0.20;;;15.90;1.00;;;;;;5034527;28;20241;-60
2023/05/23 01:00:24;;;;;;;0.30;0.30;;;15.90;1.00;;;;;;5011446;28;20207;-61
2023/05/23 01:02:52;;;;;;;0.30;0.30;;;16.00;1.00;;;;;;5019224;23;20308;-77
2023/05/23 01:05:23;;;;;;;0.20;0.20;;;16.10;1.00;;;;;;4991088;28;20737;-77
2023/05/23 01:07:51;;;;;;;0.30;0.30;;;16.10;1.00;;;;;;4992907;28;20196;-78
2023/05/23 01:10:25;;;;;;;0.30;0.30;;;16.00;1.00;;;;;;4997006;28;20201;-77
2023/05/23 01:13:23;;;;;;;0.30;0.30;;;16.00;1.00;;;;;;4996270;28;20213;-77
2023/05/23 01:15:53;;;;;;;0.40;0.40;;;15.90;1.00;;;;;;4990275;28;20219;-77
2023/05/23 01:18:26;;;;;;;0.50;0.50;;;15.90;1.00;;;;;;4982986;28;20648;-76
2023/05/23 01:21:03;;;;;;;0.20;0.20;;;15.80;1.00;;;;;;5016658;28;20204;-78
2023/05/23 01:23:54;;;;;;;0.40;0.40;;;15.80;1.00;;;;;;4988544;28;20219;-78
2023/05/23 01:26:47;;;;;;;0.30;0.30;;;15.80;1.00;;;;;;5012514;28;20212;-79
2023/05/23 01:29:21;;;;;;;0.40;0.40;;;15.70;99.90;;;;;;4991767;28;20682;-79
2023/05/23 01:31:53;;;;;;;0.40;0.40;;;15.70;99.90;;;;;;5001783;28;20208;-79
2023/05/23 01:34:21;;;;;;;0.30;0.30;;;15.70;99.90;;;;;;5020884;28;20244;-79
2023/05/23 01:36:55;;;;;;;0.40;0.40;;;15.60;99.90;;;;;;4998759;28;20197;-79
2023/05/23 01:39:22;;;;;;;0.30;0.30;;;15.60;99.90;;;;;;5014982;28;20200;-78
2023/05/23 01:41:51;;;;;;;0.30;0.30;;;15.60;99.90;;;;;;5015774;28;20276;-78
2023/05/23 01:44:20;;;;;;;0.20;0.20;;;15.70;99.90;;;;;;5017726;28;20350;-77
2023/05/23 01:46:47;;;;;;;0.30;0.30;;;15.70;99.90;;;;;;4973539;28;20193;-77
2023/05/23 01:49:17;;;;;;;0.30;0.30;;;15.70;99.90;;;;;;4978784;28;20201;-80
2023/05/23 01:51:45;;;;;;;0.30;0.30;;;15.80;99.90;;;;;;4993411;28;20255;-79
2023/05/23 01:54:15;;;;;;;0.23;0.23;;;16.10;99.90;;;;;;5015895;28;20185;-78
2023/05/23 01:56:43;;;;;;;0.40;0.40;;;16.30;99.90;;;;;;5023361;28;20272;-77
2023/05/23 01:59:11;;;;;;;0.30;0.30;;;16.40;99.90;;;;;;4997635;28;20193;-78
2023/05/23 02:01:38;;;;;;;0.30;0.30;;;16.50;99.90;;;;;;4990008;28;20201;-78
2023/05/23 02:04:05;;;;;;;0.32;0.32;;;16.40;99.90;;;;;;5022808;28;20196;-73
2023/05/23 02:06:33;;;;;;;0.30;0.30;;;16.30;99.90;;;;;;5006828;28;20200;-78
2023/05/23 02:09:00;;;;;;;1.00;1.00;;;16.40;99.90;;;;;;5048985;28;20227;-79
2023/05/23 02:11:27;;;;;;;0.70;0.70;;;16.40;99.90;;;;;;5013814;28;20194;-79
2023/05/23 02:13:54;;;;;;;0.95;0.95;;;16.50;99.90;;;;;;5001967;28;20217;-77
2023/05/23 02:16:22;;;;;;;0.30;0.30;;;16.50;99.90;;;;;;5000405;28;20200;-79
2023/05/23 02:18:51;;;;;;;0.30;0.30;;;16.50;99.90;;;;;;5016349;28;20200;-78
2023/05/23 02:21:18;;;;;;;0.30;0.30;;;16.40;99.90;;;;;;4999052;28;20200;-78
2023/05/23 02:23:45;;;;;;;0.30;0.30;;;16.50;99.90;;;;;;5022182;28;20330;-74
2023/05/23 02:26:16;;;;;;;0.30;0.30;;;16.50;99.90;;;;;;5010512;28;20649;-78
2023/05/23 02:28:43;;;;;;;0.30;0.30;;;16.50;99.90;;;;;;5020721;28;20197;-79
2023/05/23 02:31:10;;;;;;;0.30;0.30;;;16.40;99.90;;;;;;5005318;28;20287;-79
2023/05/23 02:33:37;;;;;;;0.30;0.30;;;16.50;99.90;;;;;;5018599;28;20312;-76
2023/05/23 02:36:05;;;;;;;0.73;0.73;;;16.30;99.90;;;;;;5015670;28;20196;-78
2023/05/23 02:38:32;;;;;;;0.30;0.30;;;16.30;99.90;;;;;;5017241;28;20196;-78
2023/05/23 02:40:59;;;;;;;0.30;0.30;;;16.40;99.90;;;;;;4992464;28;20215;-79
2023/05/23 02:43:27;;;;;;;0.35;0.35;;;16.40;99.90;;;;;;5013198;28;20870;-78
2023/05/23 02:45:57;;;;;;;0.30;0.30;;;16.40;99.90;;;;;;4998708;28;20457;-77
2023/05/23 02:48:24;;;;;;;0.30;0.30;;;16.40;99.90;;;;;;5009768;28;20808;-77
2023/05/23 02:50:51;;;;;;;0.20;0.20;;;16.50;99.90;;;;;;5007431;28;20227;-78
2023/05/23 02:53:19;;;;;;;0.30;0.30;;;16.20;99.90;;;;;;4993165;28;20569;-77
2023/05/23 02:55:46;;;;;;;0.30;0.30;;;16.30;99.90;;;;;;5010899;28;20200;-78
2023/05/23 02:58:13;;;;;;;0.30;0.30;;;16.30;99.90;;;;;;5013475;28;20195;-77
2023/05/23 03:00:43;;;;;;;0.30;0.30;;;16.30;99.90;;;;;;5032135;28;20254;-80
2023/05/23 03:03:10;;;;;;;0.40;0.40;;;16.20;99.90;;;;;;5042157;23;20955;-62
2023/05/23 03:05:38;;;;;;;0.40;0.40;;;16.00;99.90;;;;;;5004733;28;20223;-62
2023/05/23 03:08:05;;;;;;;0.40;0.40;;;16.10;99.90;;;;;;5003499;28;20189;-62
2023/05/23 03:10:33;;;;;;;0.30;0.30;;;16.10;99.90;;;;;;5030011;28;20270;-62
2023/05/23 03:13:00;;;;;;;0.30;0.30;;;16.10;99.90;;;;;;5020058;28;20824;-63
2023/05/23 03:15:27;;;;;;;0.30;0.30;;;15.70;99.90;;;;;;5024762;28;20199;-63
2023/05/23 03:17:54;;;;;;;0.30;0.30;;;15.80;99.90;;;;;;5013562;28;20219;-62
2023/05/23 03:20:21;;;;;;;0.30;0.30;;;16.00;99.90;;;;;;5028448;28;20183;-63
2023/05/23 03:22:48;;;;;;;0.20;0.20;;;16.10;99.90;;;;;;5018112;28;20216;-64
2023/05/23 03:25:15;;;;;;;0.30;0.30;;;16.30;99.90;;;;;;5018306;28;20200;-64
2023/05/23 03:27:42;;;;;;;0.30;0.30;;;16.50;99.90;;;;;;5006212;28;20202;-63
2023/05/23 03:30:10;;;;;;;0.35;0.35;;;16.50;99.90;;;;;;5010055;28;20235;-62
2023/05/23 03:32:37;;;;;;;0.30;0.30;;;16.50;99.90;;;;;;5004846;28;20319;-63
2023/05/23 03:35:05;;;;;;;0.30;0.30;;;16.60;99.90;;;;;;5024701;28;20200;-62
2023/05/23 03:37:32;;;;;;;0.30;0.30;;;16.70;99.90;;;;;;5013991;28;20207;-62
2023/05/23 03:39:59;;;;;;;0.30;0.30;;;16.80;99.90;;;;;;5011230;28;20200;-61
2023/05/23 03:42:27;;;;;;;0.30;0.30;;;16.80;99.90;;;;;;5022514;28;20287;-66
2023/05/23 03:44:54;;;;;;;0.40;0.40;;;16.90;99.90;;;;;;5005380;28;20192;-62
2023/05/23 03:47:23;;;;;;;0.20;0.20;;;16.90;99.90;;;;;;5016685;28;20531;-64
2023/05/23 03:49:51;;;;;;;0.30;0.30;;;16.90;99.90;;;;;;5007092;28;20236;-61
2023/05/23 03:52:18;;;;;;;0.30;0.30;;;17.00;99.90;;;;;;5009548;28;20266;-61
2023/05/23 03:54:45;;;;;;;0.30;0.30;;;16.80;99.90;;;;;;5000824;28;20203;-62
2023/05/23 03:57:12;;;;;;;0.38;0.38;;;16.80;99.90;;;;;;5006283;28;20596;-60
2023/05/23 03:59:40;;;;;;;0.75;0.75;;;16.80;99.90;;;;;;5007783;28;20578;-61
2023/05/23 04:02:10;;;;;;;0.40;0.40;;;16.70;99.90;;;;;;5014450;28;20649;-60
2023/05/23 04:04:38;;;;;;;0.30;0.30;;;16.80;99.90;;;;;;5009186;28;20236;-61
2023/05/23 04:07:05;;;;;;;0.45;0.45;;;16.70;99.90;;;;;;5013563;28;20622;-61
2023/05/23 04:09:33;;;;;;;0.30;0.30;;;16.70;99.90;;;;;;4985898;28;20204;-61
2023/05/23 04:12:02;;;;;;;0.40;0.40;;;16.70;99.90;;;;;;4993313;28;21168;-62
2023/05/23 04:14:32;;;;;;;0.30;0.30;;;16.60;99.90;;;;;;5002991;28;20338;-64
2023/05/23 04:16:59;;;;;;;0.50;0.50;;;16.60;99.90;;;;;;4993999;28;20204;-64
2023/05/23 04:19:27;;;;;;;0.40;0.40;;;16.50;99.90;;;;;;5012801;28;20196;-60
2023/05/23 04:21:55;;;;;;;0.30;0.30;;;16.60;99.90;;;;;;4994246;28;20220;-61
2023/05/23 04:24:22;;;;;;;0.30;0.30;;;16.80;99.90;;;;;;5024278;28;20192;-61
2023/05/23 04:26:49;;;;;;;0.40;0.40;;;16.60;99.90;;;;;;5007777;28;20640;-61
2023/05/23 04:29:16;;;;;;;0.30;0.30;;;16.60;99.90;;;;;;5008018;28;20290;-63
2023/05/23 04:31:44;;;;;;;0.30;0.30;;;16.80;99.90;;;;;;5016570;28;20214;-60
2023/05/23 04:34:12;;;;;;;0.30;0.30;;;16.80;99.90;;;;;;5007905;28;20212;-64
2023/05/23 04:36:39;;;;;;;0.30;0.30;;;16.80;99.90;;;;;;5001485;28;20211;-65
2023/05/23 04:39:09;;;;;;;1.08;0.55;;;16.80;99.90;;;;;;5003834;28;21040;-63
2023/05/23 04:41:44;;;;;;;1.15;1.15;;;16.80;99.90;;;;;;5019679;28;20261;-61
2023/05/23 04:44:20;;;;;;;0.30;0.30;;;16.90;99.90;;;;;;5020438;28;20811;-63
2023/05/23 04:47:01;;;;;;;0.40;0.40;;;16.90;99.90;;;;;;5003060;28;20227;-61
2023/05/23 04:49:41;;;;;;;0.47;0.47;;;16.90;99.90;;;;;;4985683;28;20298;-64
2023/05/23 04:52:08;;;;;;;0.40;0.40;;;16.90;99.90;;;;;;5006942;28;20211;-61
2023/05/23 04:54:43;;;;;;;0.30;0.30;;;16.80;99.90;;;;;;4992245;28;20307;-61
2023/05/23 04:57:11;;;;;;;0.30;0.30;;;16.80;99.90;;;;;;5004030;28;20198;-61
2023/05/23 04:59:38;;;;;;;0.30;0.30;;;16.80;99.90;;;;;;4988108;28;20716;-62
2023/05/23 05:02:05;;;;;;;0.30;0.30;;;16.60;99.90;;;;;;4988309;28;20294;-63
2023/05/23 05:04:35;;;;;;;0.30;0.30;;;16.20;99.90;;;;;;5009066;28;20251;-64
2023/05/23 05:07:03;;;;;;;0.30;0.30;;;16.10;99.90;;;;;;5040162;28;20196;-62
2023/05/23 05:09:30;;;;;;;0.40;0.40;;;16.00;99.90;;;;;;5041933;28;20254;-62
2023/05/23 05:11:58;;;;;;;0.30;0.30;;;15.90;99.90;;;;;;5023987;28;20206;-64
2023/05/23 05:14:26;;;;;;;0.30;0.30;;;15.90;99.90;;;;;;5020196;28;20684;-61
2023/05/23 05:16:56;;;;;;;0.30;0.30;;;16.00;99.90;;;;;;5019457;28;20202;-61
2023/05/23 05:19:28;;;;;;;0.30;0.30;;;16.00;99.90;;;;;;5022758;28;20285;-61
2023/05/23 05:21:56;;;;;;;0.30;0.30;;;15.80;99.90;;;;;;5020730;28;20614;-62
2023/05/23 05:24:23;;;;;;;0.20;0.20;;;16.00;99.90;;;;;;5024641;28;20198;-64
2023/05/23 05:26:51;;;;;;;0.35;0.35;;;16.00;99.90;;;;;;5026998;28;20675;-62
2023/05/23 05:29:18;;;;;;;0.40;0.40;;;16.00;99.90;;;;;;5021766;28;20211;-61
2023/05/23 05:31:46;;;;;;;0.30;0.30;;;16.00;99.90;;;;;;5034320;28;20237;-61
2023/05/23 05:34:13;;;;;;;0.40;0.40;;;16.00;99.90;;;;;;5018174;28;20315;-64
2023/05/23 05:36:44;;;;;;;0.30;0.30;;;15.90;99.90;;;;;;5005244;28;20575;-62
2023/05/23 05:39:15;;;;;;;0.30;0.30;;;15.90;99.90;;;;;;5022788;28;20722;-61
2023/05/23 05:41:42;;;;;;;0.20;0.20;;;16.00;99.90;;;;;;5021251;28;20540;-61
2023/05/23 05:44:09;;;;;;;0.30;0.30;;;15.90;99.90;;;;;;5043964;28;20645;-61
2023/05/23 05:46:36;;;;;;;0.30;0.30;;;15.80;99.90;;;;;;5026898;28;20199;-61
2023/05/23 05:49:03;;;;;;;0.30;0.30;;;15.70;99.90;;;;;;5021028;28;20651;-61
2023/05/23 05:51:31;;;;;;;0.60;0.60;;;15.60;99.90;;;;;;5029865;28;20199;-61
2023/05/23 05:53:58;;;;;;;0.35;0.35;;;15.50;99.90;;;;;;5019529;28;20211;-61
2023/05/23 05:56:26;;;;;;;0.40;0.40;;;15.40;99.90;;;;;;5024178;28;20202;-62
2023/05/23 05:58:53;;;;;;;0.30;0.30;;;15.60;99.90;;;;;;5023532;28;20199;-60
2023/05/23 06:01:22;;;;;;;0.30;0.30;;;15.40;99.90;;;;;;5028995;28;20681;-63
2023/05/23 06:03:49;;;;;;;0.20;0.20;;;15.50;99.90;;;;;;5017885;28;20246;-60
2023/05/23 06:06:17;;;;;;;0.40;0.40;;;15.40;99.90;;;;;;5017638;28;20669;-63
2023/05/23 06:08:45;;;;;;;0.40;0.40;;;15.50;99.90;;;;;;5023530;28;20200;-60
2023/05/23 06:11:15;;;;;;;0.30;0.30;;;15.40;99.90;;;;;;5022040;28;20199;-62
2023/05/23 06:13:42;;;;;;;0.35;0.35;;;15.50;99.90;;;;;;5020528;28;20223;-63
2023/05/23 06:16:10;;;;;;;0.40;0.40;;;15.50;99.90;;;;;;5036461;28;20230;-60
2023/05/23 06:18:38;;;;;;;0.30;0.30;;;15.50;99.90;;;;;;5024655;28;20196;-61
2023/05/23 06:21:05;;;;;;;0.40;0.40;;;15.50;99.90;;;;;;5021747;28;20218;-62
2023/05/23 06:23:34;;;;;;;0.30;0.30;;;15.40;99.90;;;;;;5025079;28;20622;-61
2023/05/23 06:26:02;;;;;;;0.40;0.40;;;15.50;99.90;;;;;;5022015;28;20223;-60
2023/05/23 06:28:29;;;;;;;0.30;0.30;;;15.40;99.90;;;;;;5029924;28;20203;-61
2023/05/23 06:30:56;;;;;;;0.20;0.20;;;15.50;99.90;;;;;;5001798;28;20212;-61
2023/05/23 06:33:23;;;;;;;0.30;0.30;;;15.30;99.90;;;;;;5019347;28;20223;-62
2023/05/23 06:35:50;;;;;;;0.30;0.30;;;15.20;99.90;;;;;;5016488;28;20199;-63
2023/05/23 06:38:17;;;;;;;0.20;0.20;;;15.20;99.90;;;;;;5026985;28;20271;-60
2023/05/23 06:40:45;;;;;;;0.40;0.40;;;15.10;99.90;;;;;;5026859;28;20700;-60
2023/05/23 06:43:13;;;;;;;0.30;0.30;;;15.10;99.90;;;;;;5025612;28;20200;-63
2023/05/23 06:45:49;;;;;;;0.40;0.40;;;15.10;99.90;;;;;;5014664;28;20203;-63
2023/05/23 06:48:16;;;;;;;0.30;0.30;;;15.10;99.90;;;;;;5047217;28;20200;-62
2023/05/23 06:50:44;;;;;;;0.30;0.30;;;15.10;99.90;;;;;;5026205;28;20692;-62
2023/05/23 06:53:11;;;;;;;0.40;0.40;;;15.00;99.90;;;;;;5025968;28;20200;-63
2023/05/23 06:55:40;;;;;;;0.30;0.30;;;15.10;99.90;;;;;;5021688;28;20728;-62
2023/05/23 06:58:10;;;;;;;0.20;0.20;;;15.20;99.90;;;;;;5031458;28;20203;-63
2023/05/23 07:00:37;;;;;;;0.30;0.30;;;15.20;99.90;;;;;;5026098;28;20187;-61
2023/05/23 07:03:20;;;;;;;0.30;0.30;;;15.10;99.90;;;;;;4983933;28;1188376;-63
2023/05/23 07:05:48;;;;;;;0.37;0.37;;;15.20;99.90;;;;;;5016509;28;20235;-61
2023/05/23 07:08:16;;;;;;;0.40;0.40;;;15.30;99.90;;;;;;5027767;28;20560;-61
2023/05/23 07:10:55;;;;;;;0.30;0.30;;;15.20;99.90;;;;;;5025952;28;20218;-62
2023/05/23 07:22:06;;;;;;;0.40;0.40;;;15.20;99.90;;;;;;5039145;28;20777;-62
2023/05/23 07:24:37;;;;;;;0.33;0.33;;;15.20;99.90;;;;;;5027491;28;20199;-62
2023/05/23 07:27:05;;;;;;;0.30;0.30;;;15.30;99.90;;;;;;5024896;28;20299;-60
2023/05/23 07:29:34;;;;;;;0.40;0.40;;;15.30;99.90;;;;;;5024090;28;20223;-62
2023/05/23 07:32:01;;;;;;;0.33;0.33;;;15.00;99.90;;;;;;5043904;28;20219;-61
2023/05/23 07:34:29;;;;;;;0.30;0.30;;;14.90;99.90;;;;;;5035214;28;20215;-62
2023/05/23 07:37:00;;;;;;;0.30;0.30;;;15.00;99.90;;;;;;5022616;28;20257;-61
2023/05/23 07:39:32;;;;;;;0.30;0.30;;;15.00;99.90;;;;;;5015656;28;20191;-61
2023/05/23 07:42:00;;;;;;;0.40;0.40;;;15.10;99.90;;;;;;5010355;28;20214;-62
2023/05/23 07:44:27;;;;;;;0.30;0.30;;;15.10;99.90;;;;;;5008716;28;20773;-64
2023/05/23 07:46:54;;;;;;;0.30;0.30;;;15.00;99.90;;;;;;5006149;28;20300;-61
2023/05/23 07:49:22;;;;;;;0.30;0.30;;;14.90;99.90;;;;;;5022872;28;20195;-61
2023/05/23 07:51:50;;;;;;;0.40;0.40;;;15.10;99.90;;;;;;5035434;28;20290;-64
2023/05/23 07:54:17;;;;;;;0.30;0.30;;;15.30;99.90;;;;;;5040141;28;20759;-61
2023/05/23 07:56:44;;;;;;;0.23;0.23;;;15.50;99.90;;;;;;5039519;28;20697;-61
2023/05/23 07:59:12;;;;;;;0.30;0.30;;;15.40;99.90;;;;;;5025354;28;20202;-61
2023/05/23 08:01:41;;;;;;;0.30;0.30;;;15.40;99.90;;;;;;5019074;28;20313;-61
2023/05/23 08:04:12;;;;;;;0.20;0.20;;;15.20;99.90;;;;;;5009040;28;20314;-63
2023/05/23 08:06:48;;;;;;;0.30;0.30;;;15.10;99.90;;;;;;5024707;28;20564;-63
2023/05/23 08:09:41;;;;;;;0.30;0.30;;;15.10;99.90;;;;;;5019678;28;20207;-64
2023/05/23 08:12:12;;;;;;;0.30;0.30;;;14.90;99.90;;;;;;5041786;28;20258;-61
2023/05/23 08:14:39;;;;;;;0.27;0.27;;;14.80;99.90;;;;;;5025431;28;20385;-63
2023/05/23 08:17:30;;;;;;;0.30;0.30;;;14.90;99.90;;;;;;5032477;28;20458;-62
2023/05/23 08:20:00;;;;;;;0.30;0.30;;;15.00;99.90;;;;;;5046482;28;20203;-62
2023/05/23 08:22:27;;;;;;;0.30;0.30;;;15.00;99.90;;;;;;5029978;28;20195;-61
2023/05/23 08:24:54;;;;;;;0.27;0.27;;;14.90;99.90;;;;;;5045083;28;20199;-62
2023/05/23 08:27:21;;;;;;;0.30;0.30;;;14.90;99.90;;;;;;5043749;28;20543;-60
2023/05/23 08:29:54;;;;;;;0.30;0.30;;;15.20;99.90;;;;;;5024057;28;20278;-61
2023/05/23 08:32:22;;;;;;;0.30;0.30;;;15.40;99.90;;;;;;5020452;28;20295;-59
2023/05/23 08:34:49;;;;;;;0.30;0.30;;;15.50;99.90;;;;;;5016113;28;20226;-61
2023/05/23 08:37:16;;;;;;;0.20;0.20;;;15.70;99.90;;;;;;5024661;28;20617;-61
2023/05/23 08:39:43;;;;;;;0.30;0.30;;;15.80;99.90;;;;;;5029116;28;20588;-60
2023/05/23 08:42:31;;;;;;;0.30;0.30;;;15.50;99.90;;;;;;5027653;28;20200;-65
2023/05/23 08:44:58;;;;;;;0.20;0.20;;;15.40;99.90;;;;;;5013593;28;20708;-61
2023/05/23 08:47:26;;;;;;;0.40;0.40;;;15.20;99.90;;;;;;5022723;28;20234;-62
2023/05/23 08:50:00;;;;;;;0.20;0.20;;;15.40;99.90;;;;;;5027296;28;20559;-60
2023/05/23 08:52:32;;;;;;;0.30;0.30;;;15.30;99.90;;;;;;5022525;28;20826;-61
2023/05/23 08:55:04;;;;;;;0.40;0.40;;;15.00;99.90;;;;;;5022582;28;20707;-62
2023/05/23 08:57:34;;;;;;;0.30;0.30;;;15.00;99.90;;;;;;5024003;28;20210;-61
2023/05/23 09:00:18;;;;;;;0.37;0.37;;;14.90;99.90;;;;;;5024528;28;21339;-62
2023/05/23 09:02:46;;;;;;;0.40;0.40;;;14.70;99.90;;;;;;5024089;28;20237;-63
2023/05/23 09:05:40;;;;;;;0.40;0.40;;;14.70;99.90;;;;;;5038758;28;20199;-61
2023/05/23 09:08:08;;;;;;;0.40;0.40;;;14.80;99.90;;;;;;5048607;28;20690;-60
2023/05/23 09:10:36;;;;;;;0.30;0.30;;;14.90;99.90;;;;;;5011401;28;20203;-60
2023/05/23 09:13:05;;;;;;;0.37;0.37;;;14.80;99.90;;;;;;5006077;28;20687;-61
2023/05/23 09:15:32;;;;;;;0.30;0.30;;;14.80;99.90;;;;;;5014844;28;20247;-62
2023/05/23 09:18:03;;;;;;;0.30;0.30;;;14.80;99.90;;;;;;5036870;28;20199;-63
2023/05/23 09:20:32;;;;;;;0.40;0.40;;;14.70;99.90;;;;;;5019627;28;20623;-60
2023/05/23 09:23:06;;;;;;;0.30;0.30;;;14.80;99.90;;;;;;5017853;28;20913;-62
2023/05/23 09:25:44;;;;;;;0.40;0.40;;;14.80;99.90;;;;;;4997187;28;20744;-61
2023/05/23 09:28:11;;;;;;;0.30;0.30;;;14.80;99.90;;;;;;5002376;28;20282;-63
2023/05/23 09:30:39;;;;;;;0.30;0.30;;;14.60;99.90;;;;;;5001501;28;20558;-61
2023/05/23 09:33:07;;;;;;;0.40;0.40;;;14.70;99.90;;;;;;5044691;28;20203;-61
2023/05/23 09:35:34;;;;;;;0.40;0.40;;;14.80;99.90;;;;;;5017235;28;20216;-63
2023/05/23 09:38:02;;;;;;;0.30;0.30;;;15.10;99.90;;;;;;5043921;28;20203;-60
2023/05/23 09:40:30;;;;;;;0.40;0.40;;;15.50;99.90;;;;;;5021291;28;20616;-62
2023/05/23 09:43:04;;;;;;;0.20;0.20;;;15.60;99.90;;;;;;5024144;28;20900;-61
2023/05/23 09:45:32;;;;;;;0.30;0.30;;;15.40;99.90;;;;;;5018084;28;20294;-61
2023/05/23 09:48:00;;;;;;;12.97;6.50;;;15.20;99.90;;;;;;5024561;28;20203;-62
2023/05/23 09:50:32;;;;;;;8.83;5.40;;;15.00;99.90;;;;;;5021889;28;20294;-62
2023/05/23 09:53:00;;;;;;;9.07;5.73;;;14.80;99.90;;;;;;5010709;28;20195;-61
2023/05/23 09:55:27;;;;;;;9.83;5.97;;;14.80;99.90;;;;;;5025337;28;20211;-60
2023/05/23 09:57:58;;;;;;;10.97;6.20;;;14.80;99.90;;;;;;5043616;28;20192;-62
2023/05/23 10:00:25;;;;;;;7.83;5.47;;;14.80;99.90;;;;;;5028757;28;20199;-63
2023/05/23 10:03:12;;;;;;;12.20;6.30;;;14.70;99.90;;;;;;5022872;28;20227;-61
2023/05/23 10:05:54;;;;;;;6.77;5.43;;;14.70;99.90;;;;;;5040236;28;20610;-61
2023/05/23 10:08:32;;;;;;;8.67;5.83;;;15.10;99.90;;;;;;5033845;28;20200;-62
2023/05/23 10:11:12;;;;;;;12.00;7.13;;;14.90;99.90;;;;;;5022831;28;20850;-63
2023/05/23 10:13:44;;;;;;;10.20;6.90;;;14.90;99.90;;;;;;5032154;28;20361;-60
2023/05/23 10:16:31;;;;;;;16.50;7.00;;;14.70;99.90;;;;;;5039689;28;20211;-63
2023/05/23 10:19:05;;;;;;;12.63;7.20;;;14.60;99.90;;;;;;5038156;28;20242;-60
2023/05/23 10:21:39;;;;;;;15.87;8.00;;;14.60;99.90;;;;;;5023783;28;20742;-62
2023/05/23 10:24:07;;;;;;;13.57;7.03;;;14.50;99.90;;;;;;5036251;28;20203;-63
2023/05/23 10:26:34;;;;;;;13.13;6.87;;;14.50;99.90;;;;;;5036553;28;20203;-61
2023/05/23 10:29:02;;;;;;;15.43;5.90;;;14.60;99.90;;;;;;5024577;28;20197;-64
2023/05/23 10:31:29;;;;;;;11.47;5.73;;;14.80;99.90;;;;;;5020085;28;20651;-62
2023/05/23 10:34:22;;;;;;;10.27;5.27;;;15.20;99.90;;;;;;4988090;28;20410;-64
2023/05/23 10:37:06;;;;;;;10.00;5.07;;;15.60;99.90;;;;;;5040157;28;20580;-61
2023/05/23 10:39:51;;;;;;;9.60;4.55;;;16.20;99.90;;;;;;5030471;28;20207;-60
2023/05/23 10:42:41;;;;;;;10.50;5.32;;;16.80;99.90;;;;;;5040081;28;20661;-60
2023/05/23 10:45:20;;;;;;;9.85;4.32;;;16.80;99.90;;;;;;5042126;28;20739;-61
2023/05/23 10:47:48;;;;;;;11.55;4.25;;;16.60;99.90;;;;;;5023428;28;20196;-61
2023/05/23 10:50:39;;;;;;;9.68;4.82;;;16.10;99.90;;;;;;5030564;28;20945;-61
2023/05/23 10:53:10;;;;;;;11.30;4.53;;;16.70;99.90;;;;;;5004967;28;20204;-62
2023/05/23 10:55:37;;;;;;;10.20;4.50;;;17.40;99.90;;;;;;5024711;28;20208;-63
2023/05/23 10:58:15;;;;;;;8.82;4.07;;;18.10;99.90;;;;;;5044195;28;20294;-62
2023/05/23 11:00:53;;;;;;;10.05;3.55;;;19.20;99.90;;;;;;5023213;28;20207;-61
2023/05/23 11:03:46;;;;;;;10.20;3.28;;;19.90;99.90;;;;;;5046445;28;20246;-60
2023/05/23 11:06:32;;;;;;;6.88;3.05;;;21.40;99.90;;;;;;5037821;28;20607;-63
2023/05/23 11:09:11;;;;;;;4.72;3.05;;;23.30;99.90;;;;;;5019258;28;20199;-60
2023/05/23 11:11:52;;;;;;;6.78;3.13;;;24.10;99.90;;;;;;5042108;28;20854;-60
2023/05/23 11:14:30;;;;;;;7.88;4.10;;;23.70;99.90;;;;;;5012389;28;20677;-62
2023/05/23 11:17:15;;;;;;;7.82;3.42;;;23.40;99.90;;;;;;5035446;28;20202;-60
2023/05/23 11:19:59;;;;;;;5.50;3.22;;;23.10;99.90;;;;;;5023592;28;20204;-60
2023/05/23 11:22:28;;;;;;;6.97;3.25;;;23.20;99.90;;;;;;5039566;28;20204;-62
2023/05/23 11:24:57;;;;;;;10.95;4.30;;;21.90;99.90;;;;;;5042676;28;20199;-60
2023/05/23 11:27:35;;;;;;;10.65;5.20;;;21.10;99.90;;;;;;5043135;28;20198;-60
2023/05/23 11:30:12;;;;;;;10.27;4.40;;;20.10;99.90;;;;;;5038778;28;20286;-60
2023/05/23 11:32:41;;;;;;;11.35;5.63;;;19.30;99.90;;;;;;5024576;28;20226;-59
2023/05/23 11:35:10;;;;;;;12.13;4.28;;;18.70;99.90;;;;;;5022067;28;20306;-61
2023/05/23 11:37:38;;;;;;;12.15;4.78;;;18.50;99.90;;;;;;5043942;28;20779;-61
2023/05/23 11:40:25;;;;;;;10.15;4.10;;;18.50;99.90;;;;;;5025240;28;20196;-62
2023/05/23 11:42:53;;;;;;;12.15;4.18;;;18.60;99.90;;;;;;5039955;28;20192;-60
2023/05/23 11:45:21;;;;;;;10.52;4.15;;;18.80;99.90;;;;;;5026867;28;20206;-65
2023/05/23 11:47:48;;;;;;;12.70;4.00;;;19.00;99.90;;;;;;5022862;28;20755;-61
2023/05/23 11:50:16;;;;;;;8.35;3.78;;;18.70;99.90;;;;;;5041937;28;20277;-61
2023/05/23 11:52:45;;;;;;;7.10;3.47;;;18.70;99.90;;;;;;5016050;28;20207;-61
2023/05/23 11:55:13;;;;;;;13.77;3.80;;;19.00;99.90;;;;;;5014822;28;20232;-62
2023/05/23 11:57:40;;;;;;;12.18;4.43;;;18.80;99.90;;;;;;5040872;28;20206;-66
2023/05/23 12:00:09;;;;;;;14.05;4.10;;;18.10;99.90;;;;;;4994852;28;20226;-62
2023/05/23 12:02:40;;;;;;;13.45;4.53;;;17.90;99.90;;;;;;5031536;28;20254;-63
2023/05/23 12:05:09;;;;;;;16.20;4.85;;;17.70;99.90;;;;;;5007020;28;20199;-65
2023/05/23 12:07:47;;;;;;;16.63;5.00;;;17.50;99.90;;;;;;5031147;28;20204;-64
2023/05/23 12:10:16;;;;;;;14.27;4.63;;;17.40;99.90;;;;;;5035783;28;20195;-64
2023/05/23 12:12:43;;;;;;;12.73;4.75;;;17.00;99.90;;;;;;5036611;28;20195;-62
2023/05/23 12:15:12;;;;;;;14.57;5.13;;;16.80;99.90;;;;;;5006274;28;20207;-65
2023/05/23 12:17:45;;;;;;;14.98;4.60;;;17.40;99.90;;;;;;5018638;28;20195;-59
2023/05/23 12:20:13;;;;;;;13.73;4.20;;;17.90;99.90;;;;;;5021290;28;20550;-63
2023/05/23 12:22:41;;;;;;;12.40;4.15;;;18.30;99.90;;;;;;5039633;28;20556;-65
2023/05/23 12:25:11;;;;;;;9.43;3.47;;;19.20;99.90;;;;;;5037130;28;20210;-64
2023/05/23 12:27:42;;;;;;;9.57;3.80;;;20.50;99.90;;;;;;5021200;28;20200;-62
2023/05/23 12:30:15;;;;;;;14.15;4.45;;;21.30;99.90;;;;;;5018932;28;20211;-62
2023/05/23 12:32:44;;;;;;;9.50;3.47;;;20.70;99.90;;;;;;5038239;28;20199;-61
2023/05/23 12:35:13;;;;;;;12.60;3.70;;;20.10;99.90;;;;;;5038285;28;20826;-62
2023/05/23 12:37:42;;;;;;;10.50;4.25;;;19.60;99.90;;;;;;5020250;28;20680;-62
2023/05/23 12:40:14;;;;;;;11.13;4.07;;;19.80;99.90;;;;;;5035819;28;20633;-61
2023/05/23 12:42:57;;;;;;;11.25;4.18;;;20.40;99.90;;;;;;5039341;28;20199;-60
2023/05/23 12:45:32;;;;;;;11.48;3.60;;;20.80;99.90;;;;;;5036131;28;20226;-60
2023/05/23 12:48:00;;;;;;;16.05;4.32;;;20.70;99.90;;;;;;5036668;28;20199;-61
2023/05/23 12:50:28;;;;;;;10.75;4.53;;;20.50;99.90;;;;;;5035636;28;20198;-63
2023/05/23 12:52:56;;;;;;;16.02;4.40;;;20.30;99.90;;;;;;5038018;28;20200;-63
2023/05/23 12:55:23;;;;;;;10.20;3.60;;;20.10;99.90;;;;;;5034260;28;20211;-61
2023/05/23 12:57:50;;;;;;;14.32;4.22;;;20.00;99.90;;;;;;5017358;28;20212;-64
2023/05/23 13:00:18;;;;;;;10.55;4.70;;;20.00;99.90;;;;;;5035293;28;20192;-65
2023/05/23 13:02:45;;;;;;;17.23;4.32;;;19.70;99.90;;;;;;5016213;28;20251;-62
2023/05/23 13:05:12;;;;;;;13.50;5.10;;;20.00;99.90;;;;;;5035643;28;20199;-63
2023/05/23 13:07:40;;;;;;;19.20;6.53;;;20.40;99.90;;;;;;5017126;28;20743;-62
2023/05/23 13:10:07;;;;;;;16.40;6.95;;;20.70;99.90;;;;;;5012999;28;20440;-62